Altura, Minnesota
Current Conditions -  °F | °C
As of 6:14 AM on Sunday 23 Nov 2014 (Local Time) from KONA Reporting Station
Overcast Overcast  
Wind Chill: 52°   Ceiling: 1200
Heat Index: 52°   Visibility: 10mi
Dew Point: 48°   Wind: 6mph
Humidity: 88%   Direction: 170°S
Pressure: 29.52"   Gusts: NA
Location:  44.07°N, 91.94°W
Report Text: KONA 231214Z AUTO 17005KT 10SM BKN012 BKN028 OVC055 11/09 A2952 RMK AO2
Loading
Personal Weather Stations






























Interactive Weather Map New forecast layout! Learn more

10-Day Weather Forecast

Advertisements
Track Severe Weather on mobile